| time (UTC) | temp F | wind direction | speed knots | gust knots | rain 1hr in | rain 24hr in | rain mn in | humidity % | barometer mb |
| 20260906200015 | 83 | 311 | 0.9 | 9.6 | 0.00 | 0.00 | 0.00 | 79 | 1015.7 |
| 20260906194514 | 84 | 225 | 2.6 | 9.6 | 0.00 | 0.00 | 0.00 | 77 | 1015.7 |
| 20260906193013 | 85 | 186 | 1.7 | 7.0 | 0.00 | 0.00 | 0.00 | 76 | 1015.6 |
| 20260906191515 | 86 | 298 | 0.9 | 10.4 | 0.00 | 0.00 | 0.00 | 75 | 1015.7 |
| 20260906190012 | 86 | 242 | 1.7 | 9.6 | 0.00 | 0.00 | 0.00 | 75 | 1015.8 |
| 20260906184510 | 87 | 284 | 0.0 | 5.2 | 0.00 | 0.00 | 0.00 | 72 | 1015.9 |
| 20260906183009 | 87 | 288 | 2.6 | 9.6 | 0.00 | 0.00 | 0.00 | 73 | 1015.8 |
| 20260906181519 | 87 | 9 | 1.7 | 9.6 | 0.00 | 0.00 | 0.00 | 74 | 1015.7 |
| 20260906180006 | 85 | 306 | 2.6 | 7.8 | 0.00 | 0.00 | 0.00 | 75 | 1016.0 |
| 20260906174502 | 85 | 323 | 0.0 | 6.1 | 0.00 | 0.00 | 0.00 | 76 | 1016.0 |
| 20260906173100 | 85 | 317 | 0.0 | 6.1 | 0.00 | 0.00 | 0.00 | 75 | 1016.3 |
| 20260906171613 | 85 | 281 | 2.6 | 8.7 | 0.00 | 0.00 | 0.00 | 75 | 1016.5 |
| 20260906170103 | 86 | 316 | 0.0 | 2.6 | 0.00 | 0.00 | 0.00 | 74 | 1016.7 |
| 20260906164553 | 85 | 298 | 0.9 | 6.1 | 0.00 | 0.00 | 0.00 | 76 | 1016.8 |
| 20260906163052 | 84 | 258 | 1.7 | 6.1 | 0.00 | 0.00 | 0.00 | 77 | 1017.1 |
| 20260906161613 | 83 | 336 | 0.0 | 4.3 | 0.00 | 0.00 | 0.00 | 78 | 1017.2 |
| 20260906160046 | 82 | 322 | 0.0 | 1.7 | 0.00 | 0.00 | 0.00 | 81 | 1017.2 |
| 20260906154548 | 81 | 319 | 0.0 | 6.1 | 0.00 | 0.00 | 0.00 | 81 | 1017.1 |
| 20260906153059 | 80 | 323 | 0.0 | 1.7 | 0.00 | 0.00 | 0.00 | 83 | 1017.2 |
| 20260906151538 | 79 | 336 | 0.0 | 2.6 | 0.00 | 0.00 | 0.00 | 85 | 1017.1 |
| 20260906150039 | 78 | 296 | 0.0 | 4.3 | 0.00 | 0.00 | 0.00 | 86 | 1017.2 |
| 20260906144535 | 77 | 353 | 0.0 | 3.5 | 0.00 | 0.00 | 0.00 | 86 | 1017.2 |
| 20260906143033 | 77 | 349 | 0.0 | 1.7 | 0.00 | 0.00 | 0.00 | 87 | 1017.3 |
| 20260906141528 | 76 | 356 | 0.0 | 1.7 | 0.00 | 0.00 | 0.00 | 88 | 1017.4 |
| 20260906140025 | 75 | 333 | 0.0 | 1.7 | 0.00 | 0.00 | 0.00 | 90 | 1017.7 |
| 20260906134524 | 75 | 7 | 0.0 | 1.7 | 0.00 | 0.00 | 0.00 | 89 | 1017.8 |
| 20260906133031 | 74 | 318 | 0.0 | 0.9 | 0.00 | 0.00 | 0.00 | 90 | 1017.9 |
| 20260906131521 | 73 | 301 | 0.0 | 1.7 | 0.00 | 0.00 | 0.00 | 92 | 1017.9 |
| 20260906130023 | 72 | 308 | 0.0 | 1.7 | 0.00 | 0.00 | 0.00 | 92 | 1017.8 |
| 20260906124517 | 71 | 306 | 0.0 | 0.9 | 0.00 | 0.00 | 0.00 | 93 | 1017.6 |
| 20260906123020 | 71 | 311 | 0.0 | 3.5 | 0.00 | 0.00 | 0.00 | 93 | 1017.4 |
| 20260906121531 | 71 | 294 | 0.0 | 2.6 | 0.00 | 0.00 | 0.00 | 93 | 1017.3 |
| 20260906120015 | 70 | 292 | 0.0 | 0.9 | 0.00 | 0.00 | 0.00 | 93 | 1017.4 |
| 20260906114528 | 71 | 287 | 0.0 | 1.7 | 0.00 | 0.00 | 0.00 | 92 | 1017.5 |
| 20260906113013 | 71 | 290 | 0.9 | 3.5 | 0.00 | 0.00 | 0.00 | 92 | 1017.3 |
| 20260906111513 | 71 | 297 | 0.0 | 4.3 | 0.00 | 0.00 | 0.00 | 92 | 1017.3 |
| 20260906110012 | 71 | 313 | 0.0 | 4.3 | 0.00 | 0.00 | 0.00 | 92 | 1017.3 |
| 20260906104510 | 71 | 263 | 0.9 | 5.2 | 0.00 | 0.00 | 0.00 | 93 | 1017.3 |
| 20260906103014 | 70 | 290 | 0.0 | 2.6 | 0.00 | 0.00 | 0.00 | 95 | 1017.1 |
| 20260906101511 | 69 | 338 | 0.0 | 0.0 | 0.00 | 0.00 | 0.00 | 96 | 1017.1 |
| 20260906100016 | 68 | 339 | 0.0 | 0.0 | 0.00 | 0.00 | 0.00 | 95 | 1017.1 |
| 20260906094509 | 67 | 338 | 0.0 | 0.0 | 0.00 | 0.00 | 0.00 | 94 | 1017.0 |
| 20260906093010 | 67 | 339 | 0.0 | 0.0 | 0.00 | 0.00 | 0.00 | 94 | 1017.0 |
| 20260906091507 | 68 | 338 | 0.0 | 0.0 | 0.00 | 0.00 | 0.00 | 93 | 1017.1 |
| 20260906090006 | 68 | 338 | 0.0 | 0.0 | 0.00 | 0.00 | 0.00 | 93 | 1017.4 |
| 20260906084507 | 68 | 9 | 0.0 | 0.9 | 0.00 | 0.00 | 0.00 | 93 | 1017.2 |
| 20260906083104 | 69 | 9 | 0.0 | 1.7 | 0.00 | 0.00 | 0.00 | 92 | 1017.1 |
| 20260906081558 | 70 | 5 | 0.0 | 0.9 | 0.00 | 0.00 | 0.00 | 90 | 1017.0 |
| 20260906080055 | 72 | 346 | 0.0 | 0.0 | 0.00 | 0.00 | 0.00 | 89 | 1016.9 |
| 20260906074550 | 73 | 337 | 0.0 | 0.0 | 0.00 | 0.00 | 0.00 | 88 | 1016.9 |
| 20260906073051 | 73 | 304 | 0.0 | 0.9 | 0.00 | 0.00 | 0.00 | 87 | 1016.9 |
| 20260906071550 | 73 | 320 | 0.0 | 0.9 | 0.00 | 0.00 | 0.00 | 87 | 1017.0 |
| 20260906070049 | 74 | 320 | 0.0 | 0.9 | 0.00 | 0.00 | 0.00 | 86 | 1017.0 |
| 20260906064549 | 74 | 304 | 0.0 | 3.5 | 0.00 | 0.00 | 0.00 | 86 | 1016.8 |
| 20260906063047 | 74 | 329 | 0.0 | 4.3 | 0.00 | 0.00 | 0.00 | 86 | 1016.9 |
| 20260906061549 | 73 | 291 | 0.9 | 4.3 | 0.00 | 0.00 | 0.00 | 88 | 1016.9 |
| 20260906060054 | 73 | 311 | 0.0 | 2.6 | 0.00 | 0.00 | 0.00 | 88 | 1017.0 |
| 20260906054546 | 73 | 307 | 0.0 | 0.9 | 0.00 | 0.00 | 0.00 | 88 | 1017.0 |
| 20260906053043 | 73 | 343 | 0.0 | 0.9 | 0.00 | 0.00 | 0.00 | 88 | 1016.8 |
| 20260906051542 | 73 | 346 | 0.0 | 0.9 | 0.00 | 0.00 | 0.00 | 88 | 1016.9 |
| 20260906050039 | 73 | 347 | 0.0 | 0.9 | 0.00 | 0.00 | 0.00 | 89 | 1017.0 |
| 20260906044539 | 73 | 358 | 0.0 | 0.0 | 0.00 | 0.00 | 0.00 | 89 | 1017.0 |
| 20260906043038 | 73 | 360 | 0.0 | 0.0 | 0.00 | 0.00 | 0.00 | 88 | 1017.3 |
| 20260906041538 | 73 | 1 | 0.0 | 1.7 | 0.00 | 0.00 | 0.00 | 88 | 1017.2 |
| 20260906040037 | 73 | 5 | 0.0 | 0.9 | 0.00 | 0.00 | 0.00 | 87 | 1017.3 |
| 20260906034553 | 73 | 10 | 0.0 | 0.9 | 0.00 | 0.00 | 0.00 | 87 | 1017.2 |
| 20260906033040 | 73 | 10 | 0.0 | 0.9 | 0.00 | 0.00 | 0.00 | 86 | 1017.5 |
| 20260906031537 | 73 | 14 | 0.0 | 0.9 | 0.00 | 0.00 | 0.00 | 86 | 1017.6 |
| 20260906030037 | 74 | 11 | 0.0 | 0.9 | 0.00 | 0.00 | 0.00 | 84 | 1017.9 |
| 20260906024539 | 75 | 319 | 0.0 | 0.0 | 0.00 | 0.00 | 0.00 | 83 | 1017.8 |
| 20260906023034 | 76 | 319 | 0.0 | 0.0 | 0.00 | 0.00 | 0.00 | 82 | 1017.5 |
| 20260906021541 | 76 | 319 | 0.0 | 0.0 | 0.00 | 0.00 | 0.00 | 80 | 1017.2 |
| 20260906020033 | 77 | 319 | 0.0 | 0.0 | 0.00 | 0.00 | 0.00 | 78 | 1016.8 |
| 20260906014533 | 78 | 304 | 0.0 | 0.9 | 0.00 | 0.00 | 0.00 | 77 | 1016.6 |
| 20260906013033 | 79 | 299 | 0.0 | 0.9 | 0.00 | 0.00 | 0.00 | 75 | 1016.5 |
| 20260906011533 | 80 | 296 | 0.0 | 0.9 | 0.00 | 0.00 | 0.00 | 74 | 1016.4 |
| 20260906010037 | 80 | 288 | 0.0 | 1.7 | 0.00 | 0.00 | 0.00 | 73 | 1016.3 |
| 20260906004532 | 81 | 288 | 0.0 | 3.5 | 0.00 | 0.00 | 0.00 | 71 | 1016.5 |
| 20260906003031 | 82 | 280 | 0.0 | 4.3 | 0.00 | 0.00 | 0.00 | 69 | 1016.4 |
| 20260906001546 | 82 | 351 | 0.0 | 4.3 | 0.00 | 0.00 | 0.00 | 69 | 1016.3 |
| 20260906000031 | 83 | 316 | 0.0 | 1.7 | 0.00 | 0.00 | 0.00 | 68 | 1016.0 |
| 20260905234529 | 84 | 325 | 0.0 | 2.6 | 0.00 | 0.00 | 0.00 | 66 | 1015.4 |
| 20260905233032 | 84 | 97 | 0.9 | 2.6 | 0.00 | 0.00 | 0.00 | 65 | 1015.1 |
| 20260905231529 | 85 | 90 | 0.0 | 3.5 | 0.00 | 0.00 | 0.00 | 64 | 1015.0 |
| 20260905230034 | 85 | 18 | 0.0 | 4.3 | 0.00 | 0.00 | 0.00 | 63 | 1014.9 |
| 20260905224530 | 85 | 335 | 0.9 | 2.6 | 0.00 | 0.00 | 0.00 | 63 | 1014.8 |
| 20260905223041 | 86 | 327 | 0.0 | 3.5 | 0.00 | 0.00 | 0.00 | 63 | 1014.7 |
| 20260905221526 | 85 | 232 | 0.9 | 3.5 | 0.00 | 0.00 | 0.00 | 63 | 1014.8 |
| 20260905220025 | 86 | 341 | 0.9 | 2.6 | 0.00 | 0.00 | 0.00 | 61 | 1015.0 |
| 20260905214522 | 86 | 100 | 2.6 | 5.2 | 0.00 | 0.00 | 0.00 | 60 | 1015.2 |
| 20260905213020 | 85 | 109 | 3.5 | 7.0 | 0.00 | 0.00 | 0.00 | 60 | 1015.3 |
| 20260905211518 | 85 | 3 | 2.6 | 10.4 | 0.00 | 0.00 | 0.00 | 61 | 1015.7 |
| 20260905210019 | 85 | 104 | 4.3 | 9.6 | 0.00 | 0.00 | 0.00 | 62 | 1015.7 |
| 20260905204513 | 84 | 102 | 4.3 | 9.6 | 0.00 | 0.00 | 0.00 | 64 | 1015.9 |
| 20260905203015 | 84 | 92 | 5.2 | 10.4 | 0.00 | 0.00 | 0.00 | 64 | 1016.3 |
| 20260905201520 | 83 | 100 | 5.2 | 10.4 | 0.00 | 0.00 | 0.00 | 65 | 1016.5 |